sensor_id;sensor_type;location;lat;lon;timestamp;P1;durP1;ratioP1;P2;durP2;ratioP2
61471;SDS011;47337;54.068;12.114;2023-07-16T00:00:37;2.53;;;2.00;;
61471;SDS011;47337;54.068;12.114;2023-07-16T00:03:03;2.38;;;2.05;;
61471;SDS011;47337;54.068;12.114;2023-07-16T00:05:31;2.75;;;2.20;;
61471;SDS011;47337;54.068;12.114;2023-07-16T00:07:56;3.00;;;2.20;;
61471;SDS011;47337;54.068;12.114;2023-07-16T00:10:22;3.60;;;2.00;;
61471;SDS011;47337;54.068;12.114;2023-07-16T00:12:49;2.85;;;2.08;;
61471;SDS011;47337;54.068;12.114;2023-07-16T00:15:17;2.20;;;2.00;;
61471;SDS011;47337;54.068;12.114;2023-07-16T00:17:43;3.60;;;2.22;;
61471;SDS011;47337;54.068;12.114;2023-07-16T00:20:11;4.60;;;2.10;;
61471;SDS011;47337;54.068;12.114;2023-07-16T00:22:37;2.55;;;2.22;;
61471;SDS011;47337;54.068;12.114;2023-07-16T00:25:04;3.72;;;2.25;;
61471;SDS011;47337;54.068;12.114;2023-07-16T00:27:30;2.70;;;2.17;;
61471;SDS011;47337;54.068;12.114;2023-07-16T00:29:56;2.33;;;2.10;;
61471;SDS011;47337;54.068;12.114;2023-07-16T00:32:21;2.50;;;2.30;;
61471;SDS011;47337;54.068;12.114;2023-07-16T00:34:47;3.53;;;2.17;;
61471;SDS011;47337;54.068;12.114;2023-07-16T00:37:12;2.40;;;2.20;;
61471;SDS011;47337;54.068;12.114;2023-07-16T00:39:40;2.22;;;2.03;;
61471;SDS011;47337;54.068;12.114;2023-07-16T00:42:05;2.70;;;2.40;;
61471;SDS011;47337;54.068;12.114;2023-07-16T00:44:33;3.95;;;2.55;;
61471;SDS011;47337;54.068;12.114;2023-07-16T00:46:59;3.00;;;1.73;;
61471;SDS011;47337;54.068;12.114;2023-07-16T00:49:24;2.35;;;1.30;;
61471;SDS011;47337;54.068;12.114;2023-07-16T00:51:50;4.68;;;1.30;;
61471;SDS011;47337;54.068;12.114;2023-07-16T00:54:17;2.00;;;1.10;;
61471;SDS011;47337;54.068;12.114;2023-07-16T00:56:44;2.65;;;1.30;;
61471;SDS011;47337;54.068;12.114;2023-07-16T00:59:09;2.63;;;1.10;;
61471;SDS011;47337;54.068;12.114;2023-07-16T01:01:37;2.05;;;1.30;;
61471;SDS011;47337;54.068;12.114;2023-07-16T01:04:04;2.47;;;1.00;;
61471;SDS011;47337;54.068;12.114;2023-07-16T01:09:16;1.95;;;1.00;;
61471;SDS011;47337;54.068;12.114;2023-07-16T01:11:43;1.52;;;0.88;;
61471;SDS011;47337;54.068;12.114;2023-07-16T01:14:10;2.55;;;1.13;;
61471;SDS011;47337;54.068;12.114;2023-07-16T01:16:37;2.70;;;1.02;;
61471;SDS011;47337;54.068;12.114;2023-07-16T01:19:02;2.17;;;1.42;;
61471;SDS011;47337;54.068;12.114;2023-07-16T01:29:21;3.28;;;1.38;;
61471;SDS011;47337;54.068;12.114;2023-07-16T01:31:58;1.65;;;1.00;;
61471;SDS011;47337;54.068;12.114;2023-07-16T01:34:26;2.40;;;0.90;;
61471;SDS011;47337;54.068;12.114;2023-07-16T01:36:55;3.15;;;1.05;;
61471;SDS011;47337;54.068;12.114;2023-07-16T01:39:20;1.77;;;0.88;;
61471;SDS011;47337;54.068;12.114;2023-07-16T01:41:46;1.45;;;0.85;;
61471;SDS011;47337;54.068;12.114;2023-07-16T01:44:11;2.88;;;0.73;;
61471;SDS011;47337;54.068;12.114;2023-07-16T01:46:37;1.60;;;1.02;;
61471;SDS011;47337;54.068;12.114;2023-07-16T01:49:02;2.17;;;0.88;;
61471;SDS011;47337;54.068;12.114;2023-07-16T01:51:28;1.52;;;0.80;;
61471;SDS011;47337;54.068;12.114;2023-07-16T01:53:53;1.77;;;0.90;;
61471;SDS011;47337;54.068;12.114;2023-07-16T01:56:18;1.98;;;0.90;;
61471;SDS011;47337;54.068;12.114;2023-07-16T01:58:44;1.55;;;0.90;;
61471;SDS011;47337;54.068;12.114;2023-07-16T02:01:09;1.70;;;0.77;;
61471;SDS011;47337;54.068;12.114;2023-07-16T02:03:35;1.00;;;0.85;;
61471;SDS011;47337;54.068;12.114;2023-07-16T02:06:00;2.63;;;1.08;;
61471;SDS011;47337;54.068;12.114;2023-07-16T02:08:25;1.70;;;1.05;;
61471;SDS011;47337;54.068;12.114;2023-07-16T02:10:51;4.85;;;0.85;;
61471;SDS011;47337;54.068;12.114;2023-07-16T02:13:16;1.55;;;0.80;;
61471;SDS011;47337;54.068;12.114;2023-07-16T02:15:42;2.10;;;1.08;;
61471;SDS011;47337;54.068;12.114;2023-07-16T02:18:08;1.55;;;0.80;;
61471;SDS011;47337;54.068;12.114;2023-07-16T02:20:37;2.20;;;1.00;;
61471;SDS011;47337;54.068;12.114;2023-07-16T02:23:02;3.97;;;1.00;;
61471;SDS011;47337;54.068;12.114;2023-07-16T02:25:27;2.28;;;1.00;;
61471;SDS011;47337;54.068;12.114;2023-07-16T02:27:53;1.45;;;0.75;;
61471;SDS011;47337;54.068;12.114;2023-07-16T02:30:21;2.63;;;1.00;;
61471;SDS011;47337;54.068;12.114;2023-07-16T02:32:46;1.17;;;0.80;;
61471;SDS011;47337;54.068;12.114;2023-07-16T02:35:12;1.55;;;0.70;;
61471;SDS011;47337;54.068;12.114;2023-07-16T02:37:38;1.58;;;0.90;;
61471;SDS011;47337;54.068;12.114;2023-07-16T02:40:06;3.08;;;0.95;;
61471;SDS011;47337;54.068;12.114;2023-07-16T02:42:32;3.65;;;1.00;;
61471;SDS011;47337;54.068;12.114;2023-07-16T02:44:57;3.05;;;1.20;;
61471;SDS011;47337;54.068;12.114;2023-07-16T02:47:22;1.83;;;0.73;;
61471;SDS011;47337;54.068;12.114;2023-07-16T02:49:50;1.25;;;1.00;;
61471;SDS011;47337;54.068;12.114;2023-07-16T02:52:18;2.33;;;0.77;;
61471;SDS011;47337;54.068;12.114;2023-07-16T02:54:44;2.13;;;1.08;;
61471;SDS011;47337;54.068;12.114;2023-07-16T02:57:09;3.60;;;1.10;;
61471;SDS011;47337;54.068;12.114;2023-07-16T02:59:34;2.65;;;0.80;;
61471;SDS011;47337;54.068;12.114;2023-07-16T03:02:00;3.80;;;1.20;;
61471;SDS011;47337;54.068;12.114;2023-07-16T03:04:28;1.55;;;0.88;;
61471;SDS011;47337;54.068;12.114;2023-07-16T03:06:55;2.22;;;0.95;;
61471;SDS011;47337;54.068;12.114;2023-07-16T03:09:21;3.33;;;1.25;;
61471;SDS011;47337;54.068;12.114;2023-07-16T03:11:48;1.48;;;1.00;;
61471;SDS011;47337;54.068;12.114;2023-07-16T03:14:19;1.00;;;0.90;;
61471;SDS011;47337;54.068;12.114;2023-07-16T03:16:46;3.83;;;0.90;;
61471;SDS011;47337;54.068;12.114;2023-07-16T03:19:12;2.00;;;0.77;;
61471;SDS011;47337;54.068;12.114;2023-07-16T03:21:39;2.15;;;0.90;;
61471;SDS011;47337;54.068;12.114;2023-07-16T03:24:07;2.38;;;0.77;;
61471;SDS011;47337;54.068;12.114;2023-07-16T03:26:33;3.60;;;1.10;;
61471;SDS011;47337;54.068;12.114;2023-07-16T03:28:58;2.17;;;1.00;;
61471;SDS011;47337;54.068;12.114;2023-07-16T03:31:23;3.88;;;1.00;;
61471;SDS011;47337;54.068;12.114;2023-07-16T03:33:49;2.75;;;1.30;;
61471;SDS011;47337;54.068;12.114;2023-07-16T03:36:14;3.47;;;1.30;;
61471;SDS011;47337;54.068;12.114;2023-07-16T03:38:39;2.83;;;1.20;;
61471;SDS011;47337;54.068;12.114;2023-07-16T03:41:05;1.98;;;1.10;;
61471;SDS011;47337;54.068;12.114;2023-07-16T03:43:30;1.95;;;1.20;;
61471;SDS011;47337;54.068;12.114;2023-07-16T03:45:58;3.03;;;1.30;;
61471;SDS011;47337;54.068;12.114;2023-07-16T03:48:25;3.08;;;1.45;;
61471;SDS011;47337;54.068;12.114;2023-07-16T03:50:51;2.30;;;1.10;;
61471;SDS011;47337;54.068;12.114;2023-07-16T03:53:16;1.45;;;1.00;;
61471;SDS011;47337;54.068;12.114;2023-07-16T03:55:42;2.20;;;0.93;;
61471;SDS011;47337;54.068;12.114;2023-07-16T03:58:07;1.45;;;0.90;;
61471;SDS011;47337;54.068;12.114;2023-07-16T04:00:32;2.53;;;1.20;;
61471;SDS011;47337;54.068;12.114;2023-07-16T04:02:58;3.20;;;1.15;;
61471;SDS011;47337;54.068;12.114;2023-07-16T04:05:26;2.63;;;1.13;;
61471;SDS011;47337;54.068;12.114;2023-07-16T04:07:52;3.45;;;1.40;;
61471;SDS011;47337;54.068;12.114;2023-07-16T04:10:20;2.88;;;1.70;;
61471;SDS011;47337;54.068;12.114;2023-07-16T04:12:48;3.42;;;1.25;;
61471;SDS011;47337;54.068;12.114;2023-07-16T04:15:13;2.95;;;1.45;;
61471;SDS011;47337;54.068;12.114;2023-07-16T04:17:39;2.90;;;1.15;;
61471;SDS011;47337;54.068;12.114;2023-07-16T04:20:06;2.00;;;1.33;;
61471;SDS011;47337;54.068;12.114;2023-07-16T04:22:35;1.35;;;1.10;;
61471;SDS011;47337;54.068;12.114;2023-07-16T04:25:01;2.58;;;1.08;;
61471;SDS011;47337;54.068;12.114;2023-07-16T04:27:27;2.42;;;1.17;;
61471;SDS011;47337;54.068;12.114;2023-07-16T04:29:52;1.70;;;1.10;;
61471;SDS011;47337;54.068;12.114;2023-07-16T04:32:18;2.58;;;1.23;;
61471;SDS011;47337;54.068;12.114;2023-07-16T04:34:43;2.53;;;1.17;;
61471;SDS011;47337;54.068;12.114;2023-07-16T04:37:08;2.72;;;1.25;;
61471;SDS011;47337;54.068;12.114;2023-07-16T04:39:38;2.90;;;1.38;;
61471;SDS011;47337;54.068;12.114;2023-07-16T04:42:04;2.92;;;1.60;;
61471;SDS011;47337;54.068;12.114;2023-07-16T04:44:29;2.47;;;1.30;;
61471;SDS011;47337;54.068;12.114;2023-07-16T04:46:55;1.85;;;1.38;;
61471;SDS011;47337;54.068;12.114;2023-07-16T04:49:20;3.50;;;1.38;;
61471;SDS011;47337;54.068;12.114;2023-07-16T04:51:48;1.73;;;1.10;;
61471;SDS011;47337;54.068;12.114;2023-07-16T04:54:15;3.45;;;1.50;;
61471;SDS011;47337;54.068;12.114;2023-07-16T04:56:40;2.75;;;1.27;;
61471;SDS011;47337;54.068;12.114;2023-07-16T04:59:06;1.92;;;1.20;;
61471;SDS011;47337;54.068;12.114;2023-07-16T05:01:31;1.75;;;1.10;;
61471;SDS011;47337;54.068;12.114;2023-07-16T05:03:57;1.77;;;1.33;;
61471;SDS011;47337;54.068;12.114;2023-07-16T05:06:22;1.90;;;1.20;;
61471;SDS011;47337;54.068;12.114;2023-07-16T05:08:49;3.60;;;1.52;;
61471;SDS011;47337;54.068;12.114;2023-07-16T05:11:14;1.77;;;1.15;;
61471;SDS011;47337;54.068;12.114;2023-07-16T05:13:39;2.05;;;1.35;;
61471;SDS011;47337;54.068;12.114;2023-07-16T05:16:05;1.90;;;1.00;;
61471;SDS011;47337;54.068;12.114;2023-07-16T05:18:30;1.88;;;1.00;;
61471;SDS011;47337;54.068;12.114;2023-07-16T05:20:58;4.13;;;1.33;;
61471;SDS011;47337;54.068;12.114;2023-07-16T05:23:23;1.52;;;1.30;;
61471;SDS011;47337;54.068;12.114;2023-07-16T05:25:49;1.70;;;1.20;;
61471;SDS011;47337;54.068;12.114;2023-07-16T05:28:18;2.60;;;1.17;;
61471;SDS011;47337;54.068;12.114;2023-07-16T05:30:44;2.10;;;1.35;;
61471;SDS011;47337;54.068;12.114;2023-07-16T05:33:10;2.40;;;1.08;;
61471;SDS011;47337;54.068;12.114;2023-07-16T05:35:35;1.77;;;1.10;;
61471;SDS011;47337;54.068;12.114;2023-07-16T05:38:01;1.83;;;1.30;;
61471;SDS011;47337;54.068;12.114;2023-07-16T05:40:26;1.80;;;0.95;;
61471;SDS011;47337;54.068;12.114;2023-07-16T05:42:54;2.25;;;1.40;;
61471;SDS011;47337;54.068;12.114;2023-07-16T05:45:19;1.58;;;1.17;;
61471;SDS011;47337;54.068;12.114;2023-07-16T05:47:47;2.22;;;1.13;;
61471;SDS011;47337;54.068;12.114;2023-07-16T05:50:15;4.00;;;1.30;;
61471;SDS011;47337;54.068;12.114;2023-07-16T05:52:40;2.80;;;1.48;;
61471;SDS011;47337;54.068;12.114;2023-07-16T05:55:06;2.92;;;1.20;;
61471;SDS011;47337;54.068;12.114;2023-07-16T05:57:32;2.50;;;1.02;;
61471;SDS011;47337;54.068;12.114;2023-07-16T05:59:57;2.85;;;1.40;;
61471;SDS011;47337;54.068;12.114;2023-07-16T06:02:22;3.22;;;1.65;;
61471;SDS011;47337;54.068;12.114;2023-07-16T06:04:48;3.05;;;1.20;;
61471;SDS011;47337;54.068;12.114;2023-07-16T06:07:16;2.17;;;1.30;;
61471;SDS011;47337;54.068;12.114;2023-07-16T06:09:42;2.72;;;1.35;;
61471;SDS011;47337;54.068;12.114;2023-07-16T06:12:10;3.25;;;1.15;;
61471;SDS011;47337;54.068;12.114;2023-07-16T06:14:35;2.00;;;1.17;;
61471;SDS011;47337;54.068;12.114;2023-07-16T06:17:03;2.50;;;1.00;;
61471;SDS011;47337;54.068;12.114;2023-07-16T06:19:28;3.22;;;1.10;;
61471;SDS011;47337;54.068;12.114;2023-07-16T06:21:54;1.52;;;1.00;;
61471;SDS011;47337;54.068;12.114;2023-07-16T06:24:19;1.90;;;1.13;;
61471;SDS011;47337;54.068;12.114;2023-07-16T06:26:45;1.55;;;1.17;;
61471;SDS011;47337;54.068;12.114;2023-07-16T06:29:12;3.45;;;1.30;;
61471;SDS011;47337;54.068;12.114;2023-07-16T06:31:38;2.33;;;0.88;;
61471;SDS011;47337;54.068;12.114;2023-07-16T06:34:07;3.78;;;1.10;;
61471;SDS011;47337;54.068;12.114;2023-07-16T06:36:38;3.10;;;0.90;;
61471;SDS011;47337;54.068;12.114;2023-07-16T06:39:06;3.63;;;1.20;;
61471;SDS011;47337;54.068;12.114;2023-07-16T06:41:31;3.35;;;1.50;;
61471;SDS011;47337;54.068;12.114;2023-07-16T06:43:57;2.45;;;1.20;;
61471;SDS011;47337;54.068;12.114;2023-07-16T06:46:22;2.38;;;1.10;;
61471;SDS011;47337;54.068;12.114;2023-07-16T06:48:50;1.85;;;1.10;;
61471;SDS011;47337;54.068;12.114;2023-07-16T06:51:15;2.58;;;1.17;;
61471;SDS011;47337;54.068;12.114;2023-07-16T06:53:43;3.28;;;1.35;;
61471;SDS011;47337;54.068;12.114;2023-07-16T06:56:12;2.53;;;1.10;;
61471;SDS011;47337;54.068;12.114;2023-07-16T06:58:39;2.53;;;1.25;;
61471;SDS011;47337;54.068;12.114;2023-07-16T07:01:05;3.42;;;1.10;;
61471;SDS011;47337;54.068;12.114;2023-07-16T07:03:30;3.63;;;1.17;;
61471;SDS011;47337;54.068;12.114;2023-07-16T07:05:58;3.45;;;1.40;;
61471;SDS011;47337;54.068;12.114;2023-07-16T07:08:26;3.50;;;1.38;;
61471;SDS011;47337;54.068;12.114;2023-07-16T07:10:52;2.10;;;1.27;;
61471;SDS011;47337;54.068;12.114;2023-07-16T07:13:17;3.95;;;1.50;;
61471;SDS011;47337;54.068;12.114;2023-07-16T07:15:42;6.80;;;1.55;;
61471;SDS011;47337;54.068;12.114;2023-07-16T07:18:08;2.60;;;1.13;;
61471;SDS011;47337;54.068;12.114;2023-07-16T07:20:33;3.45;;;1.20;;
61471;SDS011;47337;54.068;12.114;2023-07-16T07:22:59;4.30;;;1.35;;
61471;SDS011;47337;54.068;12.114;2023-07-16T07:25:28;3.85;;;1.45;;
61471;SDS011;47337;54.068;12.114;2023-07-16T07:27:54;2.50;;;1.30;;
61471;SDS011;47337;54.068;12.114;2023-07-16T07:30:19;4.95;;;1.10;;
61471;SDS011;47337;54.068;12.114;2023-07-16T07:32:47;4.72;;;1.33;;
61471;SDS011;47337;54.068;12.114;2023-07-16T07:35:13;3.28;;;1.50;;
61471;SDS011;47337;54.068;12.114;2023-07-16T07:37:38;4.00;;;1.55;;
61471;SDS011;47337;54.068;12.114;2023-07-16T07:40:08;4.28;;;1.42;;
61471;SDS011;47337;54.068;12.114;2023-07-16T07:42:34;2.58;;;1.10;;
61471;SDS011;47337;54.068;12.114;2023-07-16T07:44:59;3.28;;;1.20;;
61471;SDS011;47337;54.068;12.114;2023-07-16T07:47:25;3.83;;;1.38;;
61471;SDS011;47337;54.068;12.114;2023-07-16T07:49:51;2.08;;;1.17;;
61471;SDS011;47337;54.068;12.114;2023-07-16T07:52:17;2.33;;;1.10;;
61471;SDS011;47337;54.068;12.114;2023-07-16T07:54:43;4.68;;;1.25;;
61471;SDS011;47337;54.068;12.114;2023-07-16T07:57:08;3.33;;;1.40;;
61471;SDS011;47337;54.068;12.114;2023-07-16T07:59:34;5.57;;;1.40;;
61471;SDS011;47337;54.068;12.114;2023-07-16T08:01:59;3.45;;;1.17;;
61471;SDS011;47337;54.068;12.114;2023-07-16T08:04:26;3.47;;;1.60;;
61471;SDS011;47337;54.068;12.114;2023-07-16T08:06:55;3.53;;;1.33;;
61471;SDS011;47337;54.068;12.114;2023-07-16T08:09:20;3.40;;;1.30;;
61471;SDS011;47337;54.068;12.114;2023-07-16T08:11:45;1.77;;;1.27;;
61471;SDS011;47337;54.068;12.114;2023-07-16T08:14:11;2.75;;;1.40;;
61471;SDS011;47337;54.068;12.114;2023-07-16T08:16:36;3.92;;;1.65;;
61471;SDS011;47337;54.068;12.114;2023-07-16T08:19:04;5.38;;;1.55;;
61471;SDS011;47337;54.068;12.114;2023-07-16T08:21:29;2.35;;;1.38;;
61471;SDS011;47337;54.068;12.114;2023-07-16T08:23:57;2.58;;;1.30;;
61471;SDS011;47337;54.068;12.114;2023-07-16T08:26:22;2.85;;;1.45;;
61471;SDS011;47337;54.068;12.114;2023-07-16T08:28:47;1.92;;;1.10;;
61471;SDS011;47337;54.068;12.114;2023-07-16T08:31:13;2.78;;;1.55;;
61471;SDS011;47337;54.068;12.114;2023-07-16T08:33:38;4.30;;;1.73;;
61471;SDS011;47337;54.068;12.114;2023-07-16T08:36:04;1.92;;;0.93;;
61471;SDS011;47337;54.068;12.114;2023-07-16T08:38:30;3.63;;;1.27;;
61471;SDS011;47337;54.068;12.114;2023-07-16T08:41:01;2.08;;;1.00;;
61471;SDS011;47337;54.068;12.114;2023-07-16T08:43:27;4.45;;;1.17;;
61471;SDS011;47337;54.068;12.114;2023-07-16T08:45:57;2.90;;;1.10;;
61471;SDS011;47337;54.068;12.114;2023-07-16T08:48:24;3.65;;;1.38;;
61471;SDS011;47337;54.068;12.114;2023-07-16T08:50:50;2.67;;;1.50;;
61471;SDS011;47337;54.068;12.114;2023-07-16T08:53:21;4.82;;;1.35;;
61471;SDS011;47337;54.068;12.114;2023-07-16T08:55:49;4.18;;;1.25;;
61471;SDS011;47337;54.068;12.114;2023-07-16T08:58:17;5.55;;;1.10;;
61471;SDS011;47337;54.068;12.114;2023-07-16T09:00:44;3.03;;;1.13;;
61471;SDS011;47337;54.068;12.114;2023-07-16T09:03:11;3.83;;;1.42;;
61471;SDS011;47337;54.068;12.114;2023-07-16T09:05:38;4.13;;;1.58;;
61471;SDS011;47337;54.068;12.114;2023-07-16T09:08:04;4.43;;;1.17;;
61471;SDS011;47337;54.068;12.114;2023-07-16T09:10:29;3.00;;;0.93;;
61471;SDS011;47337;54.068;12.114;2023-07-16T09:12:57;1.73;;;1.17;;
61471;SDS011;47337;54.068;12.114;2023-07-16T09:15:23;3.08;;;1.30;;
61471;SDS011;47337;54.068;12.114;2023-07-16T09:17:49;2.58;;;1.08;;
61471;SDS011;47337;54.068;12.114;2023-07-16T09:20:21;4.50;;;1.48;;
61471;SDS011;47337;54.068;12.114;2023-07-16T09:22:48;3.33;;;1.00;;
61471;SDS011;47337;54.068;12.114;2023-07-16T09:25:15;3.22;;;1.40;;
61471;SDS011;47337;54.068;12.114;2023-07-16T09:27:40;2.88;;;1.20;;
61471;SDS011;47337;54.068;12.114;2023-07-16T09:30:06;2.25;;;1.17;;
61471;SDS011;47337;54.068;12.114;2023-07-16T09:32:36;3.55;;;1.27;;
61471;SDS011;47337;54.068;12.114;2023-07-16T09:35:11;2.08;;;1.23;;
61471;SDS011;47337;54.068;12.114;2023-07-16T09:37:43;1.60;;;1.00;;
61471;SDS011;47337;54.068;12.114;2023-07-16T09:40:12;2.67;;;1.23;;
61471;SDS011;47337;54.068;12.114;2023-07-16T09:42:43;2.08;;;1.10;;
61471;SDS011;47337;54.068;12.114;2023-07-16T09:45:16;3.43;;;1.23;;
61471;SDS011;47337;54.068;12.114;2023-07-16T09:47:43;3.15;;;1.13;;
61471;SDS011;47337;54.068;12.114;2023-07-16T09:50:09;5.05;;;1.13;;
61471;SDS011;47337;54.068;12.114;2023-07-16T09:52:37;2.47;;;1.33;;
61471;SDS011;47337;54.068;12.114;2023-07-16T09:55:05;3.30;;;1.42;;
61471;SDS011;47337;54.068;12.114;2023-07-16T09:57:37;2.35;;;1.23;;
61471;SDS011;47337;54.068;12.114;2023-07-16T10:00:11;9.60;;;1.70;;
61471;SDS011;47337;54.068;12.114;2023-07-16T10:02:39;2.00;;;1.10;;
61471;SDS011;47337;54.068;12.114;2023-07-16T10:05:15;2.75;;;1.20;;
61471;SDS011;47337;54.068;12.114;2023-07-16T10:07:42;2.72;;;1.23;;
61471;SDS011;47337;54.068;12.114;2023-07-16T10:10:14;2.45;;;1.30;;
61471;SDS011;47337;54.068;12.114;2023-07-16T10:12:42;5.38;;;2.03;;
61471;SDS011;47337;54.068;12.114;2023-07-16T10:15:24;3.45;;;1.52;;
61471;SDS011;47337;54.068;12.114;2023-07-16T10:17:55;2.08;;;1.40;;
61471;SDS011;47337;54.068;12.114;2023-07-16T10:20:30;3.75;;;1.23;;
61471;SDS011;47337;54.068;12.114;2023-07-16T10:23:09;2.83;;;1.35;;
61471;SDS011;47337;54.068;12.114;2023-07-16T10:26:00;3.42;;;1.17;;
61471;SDS011;47337;54.068;12.114;2023-07-16T10:28:30;5.13;;;1.40;;
61471;SDS011;47337;54.068;12.114;2023-07-16T10:31:02;1.73;;;1.17;;
61471;SDS011;47337;54.068;12.114;2023-07-16T10:33:30;4.40;;;1.25;;
61471;SDS011;47337;54.068;12.114;2023-07-16T10:35:56;2.45;;;1.00;;
61471;SDS011;47337;54.068;12.114;2023-07-16T10:38:25;2.63;;;0.98;;
61471;SDS011;47337;54.068;12.114;2023-07-16T10:40:53;3.20;;;1.40;;
61471;SDS011;47337;54.068;12.114;2023-07-16T10:43:20;3.33;;;1.40;;
61471;SDS011;47337;54.068;12.114;2023-07-16T10:45:50;2.97;;;1.30;;
61471;SDS011;47337;54.068;12.114;2023-07-16T10:48:16;2.50;;;1.38;;
61471;SDS011;47337;54.068;12.114;2023-07-16T10:50:42;1.60;;;1.08;;
61471;SDS011;47337;54.068;12.114;2023-07-16T10:53:11;1.58;;;0.95;;
61471;SDS011;47337;54.068;12.114;2023-07-16T10:55:37;4.43;;;1.27;;
61471;SDS011;47337;54.068;12.114;2023-07-16T10:58:03;2.97;;;1.30;;
61471;SDS011;47337;54.068;12.114;2023-07-16T11:00:36;1.90;;;1.20;;
61471;SDS011;47337;54.068;12.114;2023-07-16T11:03:02;2.53;;;1.38;;
61471;SDS011;47337;54.068;12.114;2023-07-16T11:05:30;1.83;;;1.00;;
61471;SDS011;47337;54.068;12.114;2023-07-16T11:07:56;2.63;;;1.17;;
61471;SDS011;47337;54.068;12.114;2023-07-16T11:10:22;2.35;;;1.00;;
61471;SDS011;47337;54.068;12.114;2023-07-16T11:12:52;2.72;;;1.30;;
61471;SDS011;47337;54.068;12.114;2023-07-16T11:15:30;2.28;;;1.17;;
61471;SDS011;47337;54.068;12.114;2023-07-16T11:18:02;2.83;;;1.60;;
61471;SDS011;47337;54.068;12.114;2023-07-16T11:20:28;2.47;;;1.30;;
61471;SDS011;47337;54.068;12.114;2023-07-16T11:22:57;2.10;;;1.13;;
61471;SDS011;47337;54.068;12.114;2023-07-16T11:25:23;3.33;;;1.20;;
61471;SDS011;47337;54.068;12.114;2023-07-16T11:27:49;2.72;;;1.50;;
61471;SDS011;47337;54.068;12.114;2023-07-16T11:30:24;2.65;;;1.27;;
61471;SDS011;47337;54.068;12.114;2023-07-16T11:32:51;4.53;;;1.40;;
61471;SDS011;47337;54.068;12.114;2023-07-16T11:35:17;3.53;;;1.65;;
61471;SDS011;47337;54.068;12.114;2023-07-16T11:37:44;2.85;;;1.20;;
61471;SDS011;47337;54.068;12.114;2023-07-16T11:40:14;1.95;;;1.35;;
61471;SDS011;47337;54.068;12.114;2023-07-16T11:45:15;1.67;;;1.40;;
61471;SDS011;47337;54.068;12.114;2023-07-16T11:47:48;5.25;;;1.80;;
61471;SDS011;47337;54.068;12.114;2023-07-16T11:50:14;1.92;;;1.42;;
61471;SDS011;47337;54.068;12.114;2023-07-16T11:52:39;4.03;;;1.50;;
61471;SDS011;47337;54.068;12.114;2023-07-16T11:55:05;4.55;;;1.58;;
61471;SDS011;47337;54.068;12.114;2023-07-16T11:57:34;3.35;;;1.60;;
61471;SDS011;47337;54.068;12.114;2023-07-16T12:00:01;8.57;;;1.73;;
61471;SDS011;47337;54.068;12.114;2023-07-16T12:02:30;4.45;;;1.63;;
61471;SDS011;47337;54.068;12.114;2023-07-16T12:05:01;4.00;;;1.85;;
61471;SDS011;47337;54.068;12.114;2023-07-16T12:07:33;4.40;;;1.58;;
61471;SDS011;47337;54.068;12.114;2023-07-16T12:10:04;4.28;;;2.50;;
61471;SDS011;47337;54.068;12.114;2023-07-16T12:12:33;4.95;;;2.08;;
61471;SDS011;47337;54.068;12.114;2023-07-16T12:15:03;3.08;;;1.80;;
61471;SDS011;47337;54.068;12.114;2023-07-16T12:17:31;5.18;;;1.63;;
61471;SDS011;47337;54.068;12.114;2023-07-16T12:19:57;4.28;;;2.03;;
61471;SDS011;47337;54.068;12.114;2023-07-16T12:22:25;3.67;;;1.65;;
61471;SDS011;47337;54.068;12.114;2023-07-16T12:24:50;3.50;;;1.75;;
61471;SDS011;47337;54.068;12.114;2023-07-16T12:27:17;2.92;;;2.40;;
61471;SDS011;47337;54.068;12.114;2023-07-16T12:29:46;6.10;;;2.08;;
61471;SDS011;47337;54.068;12.114;2023-07-16T12:32:17;3.03;;;1.98;;
61471;SDS011;47337;54.068;12.114;2023-07-16T12:34:45;6.45;;;1.90;;
61471;SDS011;47337;54.068;12.114;2023-07-16T12:37:13;3.47;;;2.10;;
61471;SDS011;47337;54.068;12.114;2023-07-16T12:39:41;4.13;;;2.10;;
61471;SDS011;47337;54.068;12.114;2023-07-16T12:42:11;4.22;;;1.90;;
61471;SDS011;47337;54.068;12.114;2023-07-16T12:44:39;2.35;;;1.80;;
61471;SDS011;47337;54.068;12.114;2023-07-16T12:47:04;2.17;;;1.90;;
61471;SDS011;47337;54.068;12.114;2023-07-16T12:49:33;4.40;;;1.90;;
61471;SDS011;47337;54.068;12.114;2023-07-16T12:52:01;4.95;;;1.90;;
61471;SDS011;47337;54.068;12.114;2023-07-16T12:54:29;4.40;;;1.88;;
61471;SDS011;47337;54.068;12.114;2023-07-16T12:56:54;4.60;;;1.60;;
61471;SDS011;47337;54.068;12.114;2023-07-16T12:59:22;4.90;;;1.98;;
61471;SDS011;47337;54.068;12.114;2023-07-16T13:01:51;4.93;;;2.33;;
61471;SDS011;47337;54.068;12.114;2023-07-16T13:04:16;5.80;;;2.45;;
61471;SDS011;47337;54.068;12.114;2023-07-16T13:06:44;3.78;;;2.20;;
61471;SDS011;47337;54.068;12.114;2023-07-16T13:09:13;3.45;;;2.10;;
61471;SDS011;47337;54.068;12.114;2023-07-16T13:11:42;3.53;;;2.10;;
61471;SDS011;47337;54.068;12.114;2023-07-16T13:14:08;4.43;;;2.00;;
61471;SDS011;47337;54.068;12.114;2023-07-16T13:16:34;2.78;;;2.25;;
61471;SDS011;47337;54.068;12.114;2023-07-16T13:19:04;3.15;;;2.42;;
61471;SDS011;47337;54.068;12.114;2023-07-16T13:21:29;3.50;;;2.30;;
61471;SDS011;47337;54.068;12.114;2023-07-16T13:23:57;3.80;;;2.22;;
61471;SDS011;47337;54.068;12.114;2023-07-16T13:26:22;4.03;;;2.45;;
61471;SDS011;47337;54.068;12.114;2023-07-16T13:28:50;4.93;;;2.35;;
61471;SDS011;47337;54.068;12.114;2023-07-16T13:31:17;4.00;;;2.25;;
61471;SDS011;47337;54.068;12.114;2023-07-16T13:33:42;4.10;;;2.17;;
61471;SDS011;47337;54.068;12.114;2023-07-16T13:36:13;5.28;;;2.30;;
61471;SDS011;47337;54.068;12.114;2023-07-16T13:38:38;4.30;;;2.40;;
61471;SDS011;47337;54.068;12.114;2023-07-16T13:41:03;4.15;;;2.35;;
61471;SDS011;47337;54.068;12.114;2023-07-16T13:43:31;3.08;;;2.10;;
61471;SDS011;47337;54.068;12.114;2023-07-16T13:45:57;4.18;;;2.60;;
61471;SDS011;47337;54.068;12.114;2023-07-16T13:48:24;4.65;;;2.50;;
61471;SDS011;47337;54.068;12.114;2023-07-16T13:50:50;6.07;;;2.75;;
61471;SDS011;47337;54.068;12.114;2023-07-16T13:53:15;5.65;;;2.30;;
61471;SDS011;47337;54.068;12.114;2023-07-16T13:55:40;4.13;;;2.40;;
61471;SDS011;47337;54.068;12.114;2023-07-16T13:58:06;2.80;;;2.00;;
61471;SDS011;47337;54.068;12.114;2023-07-16T14:00:33;2.42;;;2.00;;
61471;SDS011;47337;54.068;12.114;2023-07-16T14:02:59;4.50;;;2.45;;
61471;SDS011;47337;54.068;12.114;2023-07-16T14:05:27;4.53;;;4.07;;
61471;SDS011;47337;54.068;12.114;2023-07-16T14:07:54;5.25;;;2.20;;
61471;SDS011;47337;54.068;12.114;2023-07-16T14:10:22;7.28;;;4.38;;
61471;SDS011;47337;54.068;12.114;2023-07-16T14:12:48;3.80;;;2.38;;
61471;SDS011;47337;54.068;12.114;2023-07-16T14:15:13;2.60;;;2.00;;
61471;SDS011;47337;54.068;12.114;2023-07-16T14:17:41;4.90;;;2.28;;
61471;SDS011;47337;54.068;12.114;2023-07-16T14:20:06;3.35;;;2.25;;
61471;SDS011;47337;54.068;12.114;2023-07-16T14:22:32;4.60;;;2.20;;
61471;SDS011;47337;54.068;12.114;2023-07-16T14:24:58;5.25;;;2.33;;
61471;SDS011;47337;54.068;12.114;2023-07-16T14:27:25;3.50;;;2.35;;
61471;SDS011;47337;54.068;12.114;2023-07-16T14:29:51;3.53;;;2.50;;
61471;SDS011;47337;54.068;12.114;2023-07-16T14:32:19;6.82;;;2.83;;
61471;SDS011;47337;54.068;12.114;2023-07-16T14:34:46;5.13;;;2.42;;
61471;SDS011;47337;54.068;12.114;2023-07-16T14:37:11;4.63;;;2.72;;
61471;SDS011;47337;54.068;12.114;2023-07-16T14:39:37;10.25;;;2.45;;
61471;SDS011;47337;54.068;12.114;2023-07-16T14:42:05;4.03;;;2.55;;
61471;SDS011;47337;54.068;12.114;2023-07-16T14:44:31;4.95;;;3.25;;